createdAt,value
2018-11-10T00:00:40.874Z,32.77
2018-11-10T00:03:15.151Z,32.07
2018-11-10T00:05:49.406Z,33.00
2018-11-10T00:08:23.710Z,33.27
2018-11-10T00:10:57.922Z,32.47
2018-11-10T00:13:32.195Z,31.23
2018-11-10T00:16:06.685Z,33.37
2018-11-10T00:18:40.955Z,32.00
2018-11-10T00:21:15.510Z,30.73
2018-11-10T00:23:49.776Z,28.67
2018-11-10T00:26:24.095Z,28.40
2018-11-10T00:28:58.410Z,29.47
2018-11-10T00:31:32.661Z,25.80
2018-11-10T00:34:06.983Z,29.00
2018-11-10T00:36:41.353Z,26.33
2018-11-10T00:39:15.636Z,26.40
2018-11-10T00:41:49.910Z,26.43
2018-11-10T00:44:24.269Z,28.97
2018-11-10T00:46:58.555Z,29.80
2018-11-10T00:49:32.882Z,28.03
2018-11-10T00:52:07.217Z,25.83
2018-11-10T00:54:41.716Z,28.03
2018-11-10T00:57:16.038Z,26.43
2018-11-10T00:59:50.313Z,28.37
2018-11-10T01:02:24.585Z,26.47
2018-11-10T01:04:58.874Z,26.57
2018-11-10T01:07:33.150Z,23.93
2018-11-10T01:10:08.853Z,24.70
2018-11-10T01:12:43.253Z,25.30
2018-11-10T01:15:17.557Z,26.97
2018-11-10T01:17:51.823Z,25.47
2018-11-10T01:20:26.080Z,26.03
2018-11-10T01:23:00.381Z,28.83
2018-11-10T01:25:34.690Z,28.67
2018-11-10T01:28:09.077Z,27.17
2018-11-10T01:30:43.384Z,28.37
2018-11-10T01:33:17.702Z,29.90
2018-11-10T01:35:51.952Z,29.07
2018-11-10T01:38:26.231Z,29.40
2018-11-10T01:41:00.497Z,30.00
2018-11-10T01:43:34.761Z,35.80
2018-11-10T01:46:09.030Z,35.10
2018-11-10T01:48:43.295Z,33.53
2018-11-10T01:51:17.549Z,34.13
2018-11-10T01:53:51.846Z,34.17
2018-11-10T01:56:26.122Z,35.93
2018-11-10T01:59:00.378Z,28.63
2018-11-10T02:01:34.642Z,30.70
2018-11-10T02:04:09.014Z,34.87
2018-11-10T02:06:43.351Z,33.80
2018-11-10T02:09:17.563Z,33.97
2018-11-10T02:11:51.839Z,31.87
2018-11-10T02:14:26.099Z,36.43
2018-11-10T02:17:00.386Z,34.13
2018-11-10T02:19:34.670Z,36.90
2018-11-10T02:22:08.991Z,33.13
2018-11-10T02:24:43.277Z,33.70
2018-11-10T02:27:22.166Z,31.10
2018-11-10T02:29:56.533Z,33.27
2018-11-10T02:32:30.794Z,31.67
2018-11-10T02:35:06.570Z,27.57
2018-11-10T02:37:41.177Z,30.67
2018-11-10T02:40:15.829Z,29.50
2018-11-10T02:42:50.069Z,32.50
2018-11-10T02:45:24.334Z,28.27
2018-11-10T02:47:58.576Z,30.30
2018-11-10T02:50:32.833Z,30.17
2018-11-10T02:53:07.109Z,32.90
2018-11-10T02:55:41.405Z,28.67
2018-11-10T02:58:15.758Z,27.67
2018-11-10T03:00:50.034Z,29.93
2018-11-10T03:03:24.409Z,30.00
2018-11-10T03:05:58.723Z,28.20
2018-11-10T03:08:32.970Z,34.17
2018-11-10T03:11:07.317Z,31.33
2018-11-10T03:13:41.581Z,30.30
2018-11-10T03:16:15.849Z,27.97
2018-11-10T03:18:50.112Z,30.03
2018-11-10T03:21:24.368Z,29.00
2018-11-10T03:23:58.621Z,30.53
2018-11-10T03:26:32.892Z,28.30
2018-11-10T03:29:07.169Z,27.47
2018-11-10T03:31:41.465Z,30.53
2018-11-10T03:34:15.786Z,29.50
2018-11-10T03:36:50.025Z,28.20
2018-11-10T03:39:24.306Z,28.57
2018-11-10T03:41:58.563Z,28.23
2018-11-10T03:44:32.807Z,27.73
2018-11-10T03:47:07.086Z,32.20
2018-11-10T03:49:41.320Z,31.43
2018-11-10T03:52:15.586Z,28.07
2018-11-10T03:54:49.857Z,31.10
2018-11-10T03:57:24.108Z,31.53
2018-11-10T03:59:58.393Z,26.40
2018-11-10T04:02:32.649Z,26.63
2018-11-10T04:05:07.526Z,29.30
2018-11-10T04:07:42.916Z,30.63
2018-11-10T04:10:17.230Z,31.03
2018-11-10T04:12:51.508Z,26.77
2018-11-10T04:15:25.766Z,32.63
2018-11-10T04:18:00.057Z,30.40
2018-11-10T04:20:34.357Z,28.70
2018-11-10T04:23:08.606Z,32.83
2018-11-10T04:25:42.843Z,26.87
2018-11-10T04:28:17.086Z,28.83
2018-11-10T04:30:51.313Z,30.83
2018-11-10T04:33:25.665Z,29.73
2018-11-10T04:35:59.912Z,33.53
2018-11-10T04:38:34.150Z,33.57
2018-11-10T04:41:08.415Z,34.40
2018-11-10T04:43:42.722Z,33.03
2018-11-10T04:46:16.997Z,32.57
2018-11-10T04:48:51.281Z,37.93
2018-11-10T04:51:25.565Z,38.17
2018-11-10T04:53:59.938Z,36.80
2018-11-10T04:56:34.181Z,39.63
2018-11-10T04:59:08.562Z,35.83
2018-11-10T05:01:42.886Z,37.17
2018-11-10T05:04:17.149Z,38.20
2018-11-10T05:06:51.402Z,34.23
2018-11-10T05:09:25.680Z,38.87
2018-11-10T05:11:59.933Z,39.07
2018-11-10T05:14:34.209Z,34.80
2018-11-10T05:17:08.477Z,30.50
2018-11-10T05:19:42.873Z,28.03
2018-11-10T05:22:17.170Z,28.23
2018-11-10T05:24:51.519Z,28.77
2018-11-10T05:27:25.807Z,29.60
2018-11-10T05:30:00.498Z,28.73
2018-11-10T05:32:34.746Z,25.07
2018-11-10T05:35:09.700Z,25.63
2018-11-10T05:37:43.934Z,25.27
2018-11-10T05:40:18.177Z,26.53
2018-11-10T05:42:52.445Z,27.97
2018-11-10T05:45:26.766Z,26.40
2018-11-10T05:48:01.017Z,29.00
2018-11-10T05:50:35.280Z,32.97
2018-11-10T05:53:09.593Z,32.33
2018-11-10T05:55:43.959Z,35.67
2018-11-10T05:58:18.219Z,35.10
2018-11-10T06:00:52.534Z,31.93
2018-11-10T06:03:26.814Z,33.00
2018-11-10T06:06:01.092Z,29.97
2018-11-10T06:08:35.321Z,34.17
2018-11-10T06:11:09.554Z,31.40
2018-11-10T06:13:43.824Z,27.17
2018-11-10T06:16:18.073Z,30.23
2018-11-10T06:21:56.977Z,26.73
2018-11-10T06:24:40.768Z,26.60
2018-11-10T06:27:20.176Z,26.60
2018-11-10T06:29:54.481Z,30.67
2018-11-10T06:32:29.135Z,27.23
2018-11-10T06:35:05.745Z,26.57
2018-11-10T06:37:40.350Z,25.60
2018-11-10T06:40:14.863Z,29.97
2018-11-10T06:42:49.126Z,30.20
2018-11-10T06:45:23.360Z,30.67
2018-11-10T06:47:57.586Z,32.93
2018-11-10T06:50:31.818Z,31.53
2018-11-10T06:53:06.336Z,37.03
2018-11-10T06:55:40.613Z,33.73
2018-11-10T06:58:14.920Z,34.63
2018-11-10T07:00:49.345Z,36.23
2018-11-10T07:17:32.009Z,29.33
2018-11-10T07:20:06.741Z,32.37
2018-11-10T07:51:24.128Z,28.17
2018-11-10T08:15:38.174Z,29.17
2018-11-10T08:18:18.830Z,30.17
2018-11-10T08:20:53.070Z,27.10
2018-11-10T08:23:27.382Z,28.33
2018-11-10T08:26:01.705Z,30.60
2018-11-10T08:28:36.062Z,26.70
2018-11-10T08:31:10.331Z,26.50
2018-11-10T08:33:44.645Z,29.63
2018-11-10T08:36:18.887Z,25.77
2018-11-10T08:38:53.158Z,32.07
2018-11-10T08:41:27.486Z,26.27
2018-11-10T08:44:01.750Z,25.03
2018-11-10T08:46:36.012Z,26.80
2018-11-10T08:49:10.415Z,32.70
2018-11-10T08:51:44.747Z,28.20
2018-11-10T08:54:19.026Z,31.60
2018-11-10T08:56:53.285Z,31.13
2018-11-10T08:59:27.659Z,35.13
2018-11-10T09:02:01.934Z,32.00
2018-11-10T09:04:36.433Z,32.30
2018-11-10T09:07:10.703Z,35.67
2018-11-10T09:09:45.077Z,31.73
2018-11-10T09:12:19.305Z,32.73
2018-11-10T09:14:53.617Z,33.13
2018-11-10T09:17:27.903Z,31.30
2018-11-10T09:20:02.186Z,31.47
2018-11-10T09:22:36.479Z,30.13
2018-11-10T09:25:17.939Z,30.53
2018-11-10T09:27:52.366Z,31.70
2018-11-10T09:30:28.469Z,29.37
2018-11-10T09:33:02.729Z,28.53
2018-11-10T09:35:48.902Z,35.03
2018-11-10T09:38:23.648Z,30.73
2018-11-10T09:40:57.982Z,31.80
2018-11-10T09:43:32.288Z,31.73
2018-11-10T09:46:07.608Z,29.30
2018-11-10T09:51:22.107Z,32.07
2018-11-10T09:53:59.573Z,29.10
2018-11-10T09:56:33.882Z,29.40
2018-11-10T09:59:08.580Z,29.53
2018-11-10T10:01:45.676Z,30.43
2018-11-10T10:04:19.814Z,32.27
2018-11-10T10:06:54.750Z,29.73
2018-11-10T10:09:29.405Z,28.43
2018-11-10T10:12:03.669Z,29.37
2018-11-10T10:14:38.111Z,28.97
2018-11-10T10:17:15.065Z,31.33
2018-11-10T10:19:49.629Z,30.60
2018-11-10T10:22:27.496Z,28.93
2018-11-10T10:25:01.746Z,29.87
2018-11-10T10:27:36.561Z,28.57
2018-11-10T10:30:15.894Z,28.33
2018-11-10T10:32:56.326Z,28.67
2018-11-10T10:35:39.521Z,28.10
2018-11-10T10:38:13.650Z,26.57
2018-11-10T10:40:47.903Z,23.43
2018-11-10T10:43:23.107Z,26.07
2018-11-10T10:45:58.917Z,23.10
2018-11-10T10:48:33.238Z,22.63
2018-11-10T10:51:07.828Z,24.63
2018-11-10T10:56:26.551Z,27.73
2018-11-10T10:59:03.998Z,25.70
2018-11-10T11:04:03.626Z,25.60
2018-11-10T11:06:37.879Z,26.23
2018-11-10T11:09:16.028Z,25.30
2018-11-10T11:11:50.430Z,28.27
2018-11-10T11:14:24.675Z,23.20
2018-11-10T11:16:58.922Z,23.97
2018-11-10T11:19:33.158Z,26.23
2018-11-10T11:22:07.904Z,23.47
2018-11-10T11:24:42.157Z,20.67
2018-11-10T11:27:16.486Z,24.10
2018-11-10T11:29:50.819Z,22.00
2018-11-10T11:32:25.085Z,23.73
2018-11-10T11:34:59.412Z,23.87
2018-11-10T11:37:33.715Z,23.23
2018-11-10T11:40:09.831Z,21.07
2018-11-10T11:42:44.993Z,25.53
2018-11-10T11:45:19.234Z,22.67
2018-11-10T11:47:53.673Z,25.90
2018-11-10T11:50:27.922Z,23.27
2018-11-10T11:53:02.227Z,23.97
2018-11-10T11:55:36.507Z,26.37
2018-11-10T12:01:33.083Z,23.20
2018-11-10T12:04:08.230Z,24.97
2018-11-10T12:06:45.890Z,24.27
2018-11-10T12:09:22.418Z,23.53
2018-11-10T12:11:56.713Z,27.40
2018-11-10T12:14:31.740Z,25.83
2018-11-10T12:17:08.796Z,25.00
2018-11-10T12:19:46.173Z,28.40
2018-11-10T12:22:21.150Z,28.33
2018-11-10T12:24:55.445Z,27.40
2018-11-10T12:27:29.690Z,32.03
2018-11-10T12:30:04.364Z,31.63
2018-11-10T12:32:38.793Z,29.20
2018-11-10T12:35:14.179Z,29.20
2018-11-10T12:37:48.459Z,30.27
2018-11-10T12:40:22.900Z,29.67
2018-11-10T12:42:57.135Z,27.60
2018-11-10T12:45:31.387Z,30.60
2018-11-10T12:48:05.969Z,29.17
2018-11-10T12:53:30.803Z,32.10
2018-11-10T12:56:05.785Z,27.40
2018-11-10T12:58:40.717Z,28.73
2018-11-10T13:01:15.406Z,33.73
2018-11-10T13:03:49.873Z,35.87
2018-11-10T13:06:24.134Z,31.83
2018-11-10T13:08:58.403Z,30.17
2018-11-10T13:11:32.891Z,32.77
2018-11-10T13:14:08.257Z,31.80
2018-11-10T13:16:42.530Z,31.17
2018-11-10T13:19:16.776Z,31.20
2018-11-10T13:21:51.201Z,27.53
2018-11-10T13:24:25.455Z,28.53
2018-11-10T13:27:00.023Z,27.80
2018-11-10T13:29:34.301Z,29.67
2018-11-10T13:32:08.687Z,22.73
2018-11-10T13:34:43.149Z,22.30
2018-11-10T13:37:17.482Z,21.17
2018-11-10T13:39:51.756Z,22.47
2018-11-10T13:42:26.606Z,23.67
2018-11-10T13:45:00.857Z,24.87
2018-11-10T13:47:35.149Z,24.93
2018-11-10T13:50:10.586Z,24.93
2018-11-10T13:52:45.320Z,26.07
2018-11-10T13:55:19.193Z,26.63
2018-11-10T13:57:53.487Z,26.10
2018-11-10T14:00:27.742Z,28.67
2018-11-10T14:03:02.022Z,31.00
2018-11-10T14:05:36.357Z,26.57
2018-11-10T14:08:10.574Z,26.67
2018-11-10T14:10:44.886Z,24.17
2018-11-10T14:13:19.421Z,26.77
2018-11-10T14:19:02.118Z,23.77
2018-11-10T14:21:36.606Z,26.53
2018-11-10T14:24:10.889Z,27.40
2018-11-10T14:26:45.176Z,23.53
2018-11-10T14:29:19.481Z,26.00
2018-11-10T14:31:53.761Z,27.47
2018-11-10T14:34:28.017Z,24.00
2018-11-10T14:37:02.273Z,24.83
2018-11-10T14:39:36.539Z,26.40
2018-11-10T14:42:10.798Z,24.07
2018-11-10T14:44:45.150Z,24.33
2018-11-10T14:47:19.417Z,26.10
2018-11-10T14:49:53.683Z,24.77
2018-11-10T14:52:28.023Z,26.80
2018-11-10T14:55:02.264Z,24.00
2018-11-10T14:57:36.731Z,24.80
2018-11-10T15:00:15.173Z,21.40
2018-11-10T15:02:49.442Z,23.43
2018-11-10T15:05:23.750Z,22.50
2018-11-10T15:07:58.104Z,25.63
2018-11-10T15:13:37.010Z,25.10
2018-11-10T15:16:11.421Z,22.93
2018-11-10T15:18:47.861Z,26.63
2018-11-10T15:21:22.133Z,29.93
2018-11-10T15:23:56.425Z,33.33
2018-11-10T15:26:30.738Z,30.93
2018-11-10T15:29:05.098Z,22.40
2018-11-10T15:31:39.405Z,24.57
2018-11-10T15:34:13.666Z,24.33
2018-11-10T15:36:47.981Z,25.67
2018-11-10T15:39:22.281Z,22.90
2018-11-10T15:41:56.567Z,28.40
2018-11-10T15:44:32.643Z,26.23
2018-11-10T15:47:07.118Z,24.33
2018-11-10T15:49:41.456Z,20.70
2018-11-10T15:52:15.835Z,26.37
2018-11-10T15:54:50.101Z,26.33
2018-11-10T15:57:24.393Z,25.33
2018-11-10T15:59:58.658Z,22.57
2018-11-10T16:02:33.025Z,24.83
2018-11-10T16:05:10.629Z,26.73
2018-11-10T16:07:58.766Z,23.37
2018-11-10T16:10:33.034Z,24.97
2018-11-10T16:13:07.322Z,23.23
2018-11-10T16:15:41.654Z,21.50
2018-11-10T16:18:16.391Z,20.60
2018-11-10T16:21:06.882Z,22.00
2018-11-10T16:23:41.195Z,22.40
2018-11-10T16:26:15.442Z,21.10
2018-11-10T16:28:49.750Z,27.47
2018-11-10T16:31:24.225Z,27.23
2018-11-10T16:33:58.564Z,22.77
2018-11-10T16:36:32.866Z,23.97
2018-11-10T16:39:08.762Z,23.77
2018-11-10T16:41:45.261Z,21.83
2018-11-10T16:44:19.667Z,21.10
2018-11-10T16:46:53.925Z,22.57
2018-11-10T16:49:28.332Z,22.83
2018-11-10T16:52:02.605Z,21.30
2018-11-10T16:54:36.921Z,23.47
2018-11-10T16:57:11.312Z,22.87
2018-11-10T16:59:46.433Z,24.47
2018-11-10T17:02:20.753Z,21.47
2018-11-10T17:04:55.335Z,22.33
2018-11-10T17:07:29.623Z,23.50
2018-11-10T17:10:03.990Z,23.60
2018-11-10T17:12:38.382Z,20.40
2018-11-10T17:15:12.852Z,31.43
2018-11-10T17:17:47.145Z,21.93
2018-11-10T17:20:21.508Z,24.70
2018-11-10T17:22:55.841Z,22.17
2018-11-10T17:25:30.157Z,21.87
2018-11-10T17:28:04.452Z,22.00
2018-11-10T17:30:38.853Z,22.03
2018-11-10T17:33:13.203Z,20.10
2018-11-10T17:35:47.462Z,22.87
2018-11-10T17:38:26.474Z,21.50
2018-11-10T17:41:00.764Z,21.70
2018-11-10T17:43:35.066Z,21.40
2018-11-10T17:46:09.379Z,21.60
2018-11-10T17:48:43.744Z,19.33
2018-11-10T17:51:18.014Z,18.77
2018-11-10T17:53:52.353Z,20.77
2018-11-10T17:56:26.614Z,20.43
2018-11-10T17:59:00.863Z,18.23
2018-11-10T18:01:44.494Z,18.13
2018-11-10T18:04:25.554Z,18.30
2018-11-10T18:07:04.689Z,20.47
2018-11-10T18:09:43.222Z,21.50
2018-11-10T18:12:21.604Z,21.57
2018-11-10T18:15:02.497Z,26.33
2018-11-10T18:17:44.593Z,20.40
2018-11-10T18:20:33.441Z,23.40
2018-11-10T18:23:15.453Z,22.20
2018-11-10T18:25:49.724Z,23.90
2018-11-10T18:28:24.103Z,23.90
2018-11-10T18:30:58.358Z,21.10
2018-11-10T18:33:32.606Z,23.37
2018-11-10T18:36:06.923Z,23.57
2018-11-10T18:38:41.194Z,22.07
2018-11-10T18:41:15.473Z,23.97
2018-11-10T18:43:49.777Z,21.70
2018-11-10T18:46:24.049Z,22.30
2018-11-10T18:48:58.342Z,27.27
2018-11-10T18:51:32.614Z,25.47
2018-11-10T18:54:06.904Z,22.33
2018-11-10T18:59:48.446Z,24.97
2018-11-10T19:02:22.774Z,23.13
2018-11-10T19:04:57.074Z,22.43
2018-11-10T19:07:31.306Z,23.03
2018-11-10T19:10:06.882Z,23.53
2018-11-10T19:12:41.777Z,24.07
2018-11-10T19:15:18.474Z,23.50
2018-11-10T19:17:52.725Z,20.87
2018-11-10T19:20:27.084Z,23.93
2018-11-10T19:23:01.628Z,20.20
2018-11-10T19:25:35.838Z,20.90
2018-11-10T19:28:10.193Z,20.17
2018-11-10T19:30:44.526Z,20.83
2018-11-10T19:33:18.879Z,18.40
2018-11-10T19:35:53.762Z,19.33
2018-11-10T19:38:28.063Z,19.23
2018-11-10T19:41:02.362Z,21.27
2018-11-10T19:43:36.750Z,20.97
2018-11-10T19:46:11.078Z,23.23
2018-11-10T19:48:45.430Z,20.07
2018-11-10T19:51:19.969Z,21.10
2018-11-10T19:53:54.227Z,21.23
2018-11-10T19:56:28.497Z,20.43
2018-11-10T19:59:02.927Z,21.00
2018-11-10T20:01:37.426Z,19.43
2018-11-10T20:04:11.723Z,18.50
2018-11-10T20:06:46.224Z,20.63
2018-11-10T20:09:20.449Z,21.03
2018-11-10T20:11:54.705Z,16.33
2018-11-10T20:14:28.977Z,21.70
2018-11-10T20:17:03.313Z,23.27
2018-11-10T20:19:37.576Z,19.40
2018-11-10T20:22:11.862Z,22.40
2018-11-10T20:24:46.154Z,21.33
2018-11-10T20:27:20.420Z,23.73
2018-11-10T20:29:54.696Z,20.50
2018-11-10T20:32:28.957Z,23.10
2018-11-10T20:35:03.238Z,22.27
2018-11-10T20:37:37.606Z,22.30
2018-11-10T20:40:13.127Z,19.23
2018-11-10T20:42:47.395Z,19.27
2018-11-10T20:45:22.328Z,19.10
2018-11-10T20:47:56.571Z,19.57
2018-11-10T20:50:30.820Z,19.87
2018-11-10T20:53:05.190Z,19.00
2018-11-10T20:55:49.745Z,19.23
2018-11-10T21:01:27.942Z,19.27
2018-11-10T21:04:02.250Z,19.37
2018-11-10T21:06:36.521Z,18.37
2018-11-10T21:09:12.306Z,17.33
2018-11-10T21:11:46.570Z,21.60
2018-11-10T21:14:20.834Z,19.53
2018-11-10T21:16:55.101Z,17.43
2018-11-10T21:19:29.356Z,18.30
2018-11-10T21:22:03.661Z,18.40
2018-11-10T21:24:38.003Z,16.47
2018-11-10T21:27:12.318Z,15.90
2018-11-10T21:29:46.710Z,17.23
2018-11-10T21:32:20.885Z,15.43
2018-11-10T21:34:55.167Z,14.90
2018-11-10T21:37:29.427Z,14.03
2018-11-10T21:40:03.774Z,13.57
2018-11-10T21:42:38.079Z,15.23
2018-11-10T21:45:13.069Z,15.40
2018-11-10T21:47:47.542Z,11.27
2018-11-10T21:50:21.805Z,11.07
2018-11-10T21:52:56.029Z,10.50
2018-11-10T21:55:30.310Z,11.00
2018-11-10T21:58:04.730Z,10.77
2018-11-10T22:00:39.119Z,12.23
2018-11-10T22:03:13.366Z,12.80
2018-11-10T22:05:47.648Z,12.90
2018-11-10T22:08:21.973Z,11.93
2018-11-10T22:10:56.240Z,11.17
2018-11-10T22:13:30.505Z,12.03
2018-11-10T22:16:04.953Z,9.93
2018-11-10T22:18:39.346Z,9.10
2018-11-10T22:21:13.608Z,10.07
2018-11-10T22:23:47.861Z,9.20
2018-11-10T22:26:22.210Z,9.00
2018-11-10T22:28:57.227Z,8.77
2018-11-10T22:31:31.502Z,7.93
2018-11-10T22:34:05.922Z,8.23
2018-11-10T22:36:40.185Z,8.97
2018-11-10T22:39:14.439Z,8.93
2018-11-10T22:41:48.711Z,8.80
2018-11-10T22:44:22.945Z,9.77
2018-11-10T22:46:57.202Z,9.40
2018-11-10T22:49:31.438Z,9.37
2018-11-10T22:52:06.119Z,8.80
2018-11-10T22:54:40.345Z,8.23
2018-11-10T22:57:14.605Z,8.67
2018-11-10T22:59:48.848Z,8.23
2018-11-10T23:02:23.123Z,9.03
2018-11-10T23:04:57.385Z,7.90
2018-11-10T23:07:31.636Z,8.23
2018-11-10T23:10:05.937Z,9.47
2018-11-10T23:12:40.415Z,10.47
2018-11-10T23:15:14.688Z,9.40
2018-11-10T23:17:48.955Z,9.43
2018-11-10T23:20:23.234Z,11.80
2018-11-10T23:22:57.546Z,12.03
2018-11-10T23:25:31.755Z,11.43
2018-11-10T23:28:06.026Z,12.10
2018-11-10T23:30:40.277Z,11.63
2018-11-10T23:33:14.536Z,12.00
2018-11-10T23:35:48.804Z,13.63
2018-11-10T23:38:23.057Z,11.13
2018-11-10T23:40:57.313Z,12.23
2018-11-10T23:43:31.564Z,11.87
2018-11-10T23:46:05.867Z,12.93
2018-11-10T23:48:40.858Z,14.97
2018-11-10T23:51:15.110Z,13.47
2018-11-10T23:53:49.364Z,12.40
2018-11-10T23:56:23.623Z,12.13
2018-11-10T23:58:57.901Z,13.47
